createdAt,value
2023-05-10T03:32:38.096Z,11.99
2023-05-10T03:39:37.967Z,12.04
2023-05-10T04:04:37.695Z,12.12
2023-05-10T04:05:37.686Z,12.12
2023-05-10T04:06:37.708Z,12.21
2023-05-10T04:07:37.664Z,12.03
2023-05-10T04:08:37.803Z,12.32
2023-05-10T04:09:37.645Z,12.18
2023-05-10T04:10:37.634Z,12.33
2023-05-10T04:11:37.626Z,12.04
2023-05-10T04:12:37.613Z,11.93
2023-05-10T04:13:37.637Z,12.40
2023-05-10T04:14:37.587Z,12.24
2023-05-10T04:15:37.582Z,12.35
2023-05-10T04:16:37.677Z,12.50
2023-05-10T04:17:37.568Z,12.14
2023-05-10T04:18:37.548Z,12.39
2023-05-10T04:19:37.530Z,11.95
2023-05-10T04:20:37.530Z,12.03
2023-05-10T04:21:37.511Z,12.21
2023-05-10T04:22:37.506Z,12.03
2023-05-10T04:23:37.509Z,12.92
2023-05-10T04:24:37.508Z,12.14
2023-05-10T04:25:37.466Z,12.29
2023-05-10T04:26:37.465Z,12.37
2023-05-10T04:27:37.447Z,12.58
2023-05-10T04:28:37.444Z,12.10
2023-05-10T04:29:37.426Z,12.37
2023-05-10T04:30:37.422Z,12.69
2023-05-10T04:31:37.416Z,12.35
2023-05-10T04:32:37.457Z,12.14
2023-05-10T04:33:37.389Z,12.15
2023-05-10T04:34:37.374Z,12.42
2023-05-10T04:35:37.359Z,12.25
2023-05-10T04:36:37.353Z,12.25
2023-05-10T04:37:37.342Z,12.39
2023-05-10T04:38:37.326Z,12.35
2023-05-10T04:39:37.314Z,12.43
2023-05-10T04:40:37.328Z,12.36
2023-05-10T04:41:37.294Z,12.29
2023-05-10T04:42:37.286Z,12.45
2023-05-10T04:43:37.382Z,11.96
2023-05-10T04:44:37.271Z,12.61
2023-05-10T04:45:37.248Z,12.36
2023-05-10T04:46:37.313Z,12.69
2023-05-10T04:47:37.279Z,12.48
2023-05-10T04:48:37.220Z,12.42
2023-05-10T04:49:37.210Z,12.54
2023-05-10T04:50:37.196Z,12.42
2023-05-10T04:51:37.189Z,12.61
2023-05-10T04:52:37.177Z,12.61
2023-05-10T04:53:37.163Z,12.63
2023-05-10T04:54:37.154Z,12.51
2023-05-10T04:55:37.141Z,12.37
2023-05-10T04:56:37.176Z,12.74
2023-05-10T04:57:37.121Z,12.36
2023-05-10T04:58:37.108Z,12.37
2023-05-10T04:59:37.102Z,12.57
2023-05-10T05:00:37.085Z,12.39
2023-05-10T05:01:37.135Z,12.25
2023-05-10T05:02:37.127Z,12.39
2023-05-10T05:03:37.115Z,12.06
2023-05-10T05:04:37.046Z,12.54
2023-05-10T05:05:37.035Z,12.58
2023-05-10T05:06:37.029Z,12.47
2023-05-10T05:07:37.009Z,12.20
2023-05-10T05:09:10.926Z,12.24
2023-05-10T05:10:10.910Z,12.60
2023-05-10T05:11:10.909Z,12.48
2023-05-10T05:12:10.939Z,12.48
2023-05-10T05:13:10.908Z,12.54
2023-05-10T05:14:10.866Z,12.57
2023-05-10T05:15:10.860Z,12.50
2023-05-10T05:16:10.876Z,12.29
2023-05-10T05:17:10.839Z,12.42
2023-05-10T05:18:10.887Z,12.45
2023-05-10T05:19:10.819Z,12.48
2023-05-10T05:20:10.806Z,12.21
2023-05-10T05:21:10.798Z,12.69
2023-05-10T05:22:10.987Z,12.53
2023-05-10T05:23:10.784Z,12.51
2023-05-10T05:24:10.761Z,12.51
2023-05-10T05:25:10.784Z,12.35
2023-05-10T05:26:10.747Z,12.55
2023-05-10T05:27:10.729Z,12.57
2023-05-10T05:28:10.739Z,12.42
2023-05-10T05:29:10.718Z,12.95
2023-05-10T05:30:10.698Z,12.48
2023-05-10T05:31:10.723Z,12.39
2023-05-10T05:32:10.714Z,13.04
2023-05-10T05:33:10.892Z,12.30
2023-05-10T05:34:10.857Z,12.51
2023-05-10T05:35:10.659Z,12.33
2023-05-10T05:36:10.644Z,12.32
2023-05-10T05:37:10.635Z,12.84
2023-05-10T05:38:10.617Z,12.54
2023-05-10T05:39:10.604Z,12.98
2023-05-10T05:40:10.598Z,12.63
2023-05-10T05:41:10.584Z,12.80
2023-05-10T05:42:10.570Z,12.35
2023-05-10T05:43:10.568Z,12.74
2023-05-10T05:44:10.585Z,12.51
2023-05-10T05:45:10.540Z,12.69
2023-05-10T05:46:10.585Z,12.67
2023-05-10T05:47:10.599Z,12.47
2023-05-10T05:48:10.541Z,13.25
2023-05-10T05:49:10.499Z,12.84
2023-05-10T05:50:10.487Z,12.73
2023-05-10T05:51:10.479Z,12.55
2023-05-10T05:52:10.467Z,12.94
2023-05-10T05:53:10.471Z,12.57
2023-05-10T05:54:10.447Z,12.66
2023-05-10T05:55:10.641Z,12.77
2023-05-10T05:56:10.425Z,13.12
2023-05-10T05:57:10.415Z,12.84
2023-05-10T05:58:10.402Z,12.30
2023-05-10T05:59:10.395Z,12.73
2023-05-10T06:00:10.419Z,12.81
2023-05-10T06:01:10.375Z,12.70
2023-05-10T06:02:10.427Z,12.80
2023-05-10T06:03:10.429Z,12.85
2023-05-10T06:04:10.408Z,12.85
2023-05-10T06:05:10.336Z,12.57
2023-05-10T06:06:10.322Z,12.81
2023-05-10T06:07:10.313Z,12.61
2023-05-10T06:08:10.298Z,12.32
2023-05-10T06:09:10.301Z,12.88
2023-05-10T06:10:10.279Z,12.71
2023-05-10T06:11:10.273Z,12.99
2023-05-10T06:12:10.275Z,13.24
2023-05-10T06:13:10.288Z,13.16
2023-05-10T06:14:10.241Z,13.38
2023-05-10T06:15:10.238Z,13.49
2023-05-10T06:16:10.355Z,12.99
2023-05-10T06:17:10.418Z,13.61
2023-05-10T06:18:10.247Z,13.61
2023-05-10T06:19:10.188Z,13.79
2023-05-10T06:20:10.176Z,13.90
2023-05-10T06:21:10.165Z,13.87
2023-05-10T06:22:10.154Z,14.03
2023-05-10T06:23:10.146Z,14.16
2023-05-10T06:24:10.135Z,13.92
2023-05-10T06:25:10.141Z,14.34
2023-05-10T06:26:10.119Z,14.21
2023-05-10T06:27:10.120Z,14.12
2023-05-10T06:28:10.100Z,14.29
2023-05-10T06:29:10.086Z,14.21
2023-05-10T06:30:13.201Z,13.79
2023-05-10T06:31:10.143Z,13.97
2023-05-10T06:32:10.079Z,13.74
2023-05-10T06:33:10.142Z,13.83
2023-05-10T06:34:10.026Z,13.70
2023-05-10T06:35:10.032Z,14.12
2023-05-10T06:36:10.219Z,13.90
2023-05-10T06:37:10.001Z,13.78
2023-05-10T06:38:09.990Z,14.11
2023-05-10T06:39:09.981Z,14.48
2023-05-10T06:40:09.968Z,13.98
2023-05-10T06:41:09.961Z,14.13
2023-05-10T06:42:09.960Z,14.48
2023-05-10T06:43:09.934Z,14.39
2023-05-10T06:44:09.923Z,14.20
2023-05-10T06:45:09.913Z,14.49
2023-05-10T06:46:10.002Z,13.89
2023-05-10T06:47:09.890Z,14.06
2023-05-10T06:48:09.931Z,14.79
2023-05-10T06:49:09.872Z,14.52
2023-05-10T06:50:09.876Z,14.90
2023-05-10T06:51:09.852Z,14.79
2023-05-10T06:52:09.840Z,14.96
2023-05-10T06:53:09.831Z,15.17
2023-05-10T06:54:09.818Z,14.93
2023-05-10T06:55:09.863Z,14.99
2023-05-10T06:56:10.006Z,14.81
2023-05-10T06:57:23.392Z,14.49
2023-05-10T06:58:10.810Z,14.44
2023-05-10T06:59:09.805Z,14.54
2023-05-10T07:00:09.989Z,14.57
2023-05-10T07:01:10.039Z,14.57
2023-05-10T07:02:09.773Z,14.71
2023-05-10T07:03:09.748Z,14.30
2023-05-10T07:04:09.734Z,14.67
2023-05-10T07:05:09.703Z,14.86
2023-05-10T07:06:15.683Z,15.03
2023-05-10T07:07:10.723Z,14.97
2023-05-10T07:08:09.674Z,15.03
2023-05-10T07:09:09.664Z,14.78
2023-05-10T07:10:09.660Z,15.02
2023-05-10T07:11:09.645Z,15.19
2023-05-10T07:12:11.565Z,15.34
2023-05-10T07:13:09.723Z,15.08
2023-05-10T07:14:09.614Z,15.21
2023-05-10T07:15:09.612Z,14.90
2023-05-10T07:16:09.617Z,14.92
2023-05-10T07:17:09.635Z,14.72
2023-05-10T07:18:09.696Z,15.10
2023-05-10T07:19:09.566Z,14.86
2023-05-10T07:20:09.576Z,14.96
2023-05-10T07:21:09.816Z,14.74
2023-05-10T07:22:09.539Z,14.75
2023-05-10T07:23:09.519Z,15.85
2023-05-10T07:24:09.508Z,16.39
2023-05-10T07:25:09.710Z,16.64
2023-05-10T07:26:09.490Z,16.76
2023-05-10T07:27:09.513Z,17.06
2023-05-10T07:28:09.479Z,17.07
2023-05-10T07:29:09.469Z,16.72
2023-05-10T07:30:09.448Z,16.56
2023-05-10T07:31:09.512Z,16.17
2023-05-10T07:32:09.472Z,16.07
2023-05-10T07:33:09.498Z,15.86
2023-05-10T07:34:09.430Z,15.91
2023-05-10T07:35:09.398Z,15.91
2023-05-10T07:36:09.421Z,15.96
2023-05-10T07:37:09.401Z,15.70
2023-05-10T07:38:09.368Z,15.33
2023-05-10T07:39:09.360Z,15.32
2023-05-10T07:40:09.341Z,15.18
2023-05-10T07:41:09.338Z,15.10
2023-05-10T07:42:09.325Z,15.00
2023-05-10T07:43:09.319Z,15.22
2023-05-10T07:44:09.295Z,15.19
2023-05-10T07:45:09.292Z,15.22
2023-05-10T07:46:09.301Z,15.55
2023-05-10T07:47:09.277Z,15.59
2023-05-10T07:48:09.294Z,15.96
2023-05-10T07:49:09.250Z,16.65
2023-05-10T07:50:09.247Z,16.21
2023-05-10T07:51:09.230Z,17.07
2023-05-10T07:52:09.235Z,17.07
2023-05-10T07:53:09.206Z,17.85
2023-05-10T07:54:09.195Z,18.08
2023-05-10T07:55:09.206Z,18.79
2023-05-10T07:56:09.172Z,19.15
2023-05-10T07:57:09.160Z,18.91
2023-05-10T07:58:09.159Z,19.27
2023-05-10T07:59:10.767Z,18.64
2023-05-10T08:00:09.130Z,19.01
2023-05-10T08:01:09.127Z,18.71
2023-05-10T08:02:09.147Z,19.23
2023-05-10T08:03:09.168Z,18.74
2023-05-10T08:04:09.206Z,18.10
2023-05-10T08:05:09.091Z,17.78
2023-05-10T08:06:09.067Z,17.82
2023-05-10T08:07:09.060Z,17.55
2023-05-10T08:08:09.081Z,17.46
2023-05-10T08:09:09.040Z,17.40
2023-05-10T08:10:09.026Z,17.47
2023-05-10T08:11:09.229Z,17.70
2023-05-10T08:12:09.036Z,17.73
2023-05-10T08:13:09.002Z,17.80
2023-05-10T08:14:08.991Z,18.12
2023-05-10T08:15:08.980Z,17.82
2023-05-10T08:16:09.003Z,17.51
2023-05-10T08:17:08.959Z,17.51
2023-05-10T08:18:08.961Z,17.24
2023-05-10T08:19:09.236Z,17.10
2023-05-10T08:20:08.926Z,17.02
2023-05-10T08:21:08.918Z,17.15
2023-05-10T08:22:08.909Z,16.91
2023-05-10T08:23:08.901Z,16.92
2023-05-10T08:24:08.907Z,16.47
2023-05-10T08:25:08.875Z,16.77
2023-05-10T08:26:08.870Z,16.91
2023-05-10T08:27:08.861Z,16.62
2023-05-10T08:28:09.903Z,16.58
2023-05-10T08:29:08.837Z,16.80
2023-05-10T08:30:08.830Z,16.56
2023-05-10T08:31:09.042Z,16.46
2023-05-10T08:32:08.807Z,16.28
2023-05-10T08:33:10.565Z,16.17
2023-05-10T08:34:08.782Z,15.96
2023-05-10T08:35:08.794Z,16.31
2023-05-10T08:36:08.770Z,15.81
2023-05-10T08:37:08.751Z,15.96
2023-05-10T08:38:08.746Z,16.14
2023-05-10T08:39:16.211Z,15.70
2023-05-10T08:40:09.812Z,15.93
2023-05-10T08:41:08.713Z,15.91
2023-05-10T08:42:08.712Z,16.46
2023-05-10T08:43:08.686Z,16.35
2023-05-10T08:44:08.684Z,17.05
2023-05-10T08:45:08.674Z,17.90
2023-05-10T08:46:08.748Z,19.19
2023-05-10T08:47:08.809Z,20.34
2023-05-10T08:48:08.686Z,20.38
2023-05-10T08:49:08.636Z,21.02
2023-05-10T08:50:08.623Z,20.19
2023-05-10T08:51:08.606Z,19.70
2023-05-10T08:52:08.687Z,20.05
2023-05-10T08:53:08.610Z,20.96
2023-05-10T08:54:08.577Z,20.95
2023-05-10T08:55:08.563Z,21.12
2023-05-10T08:56:08.571Z,21.15
2023-05-10T08:57:08.562Z,20.40
2023-05-10T08:58:08.534Z,20.25
2023-05-10T08:59:08.524Z,19.63
2023-05-10T09:00:08.512Z,18.65
2023-05-10T09:01:08.550Z,18.19
2023-05-10T09:02:08.510Z,18.19
2023-05-10T09:03:08.536Z,18.22
2023-05-10T09:04:08.583Z,18.79
2023-05-10T09:05:08.589Z,19.54
2023-05-10T09:06:08.453Z,20.19
2023-05-10T09:07:08.451Z,21.59
2023-05-10T09:08:08.437Z,22.03
2023-05-10T09:09:08.421Z,21.51
2023-05-10T09:10:08.415Z,20.97
2023-05-10T09:11:08.400Z,20.72
2023-05-10T09:12:08.411Z,20.16
2023-05-10T09:13:08.386Z,20.37
2023-05-10T09:14:08.374Z,19.97
2023-05-10T09:15:08.361Z,21.30
2023-05-10T09:16:20.401Z,21.42
2023-05-10T09:17:09.439Z,21.98
2023-05-10T09:18:08.396Z,22.34
2023-05-10T09:19:08.530Z,22.53
2023-05-10T09:20:08.310Z,22.40
2023-05-10T09:21:08.299Z,21.36
2023-05-10T09:22:08.334Z,21.28
2023-05-10T09:23:08.293Z,22.35
2023-05-10T09:24:08.282Z,22.99
2023-05-10T09:25:08.271Z,23.21
2023-05-10T09:26:08.262Z,22.23
2023-05-10T09:27:08.248Z,21.97
2023-05-10T09:28:08.250Z,21.38
2023-05-10T09:29:08.214Z,20.81
2023-05-10T09:30:08.408Z,20.49
2023-05-10T09:31:08.237Z,19.57
2023-05-10T09:32:08.188Z,19.04
2023-05-10T09:33:08.190Z,18.90
2023-05-10T09:34:08.168Z,18.94
2023-05-10T09:35:08.169Z,18.76
2023-05-10T09:36:08.146Z,18.60
2023-05-10T09:37:08.141Z,18.56
2023-05-10T09:38:08.135Z,18.54
2023-05-10T09:39:08.111Z,18.27
2023-05-10T09:40:08.130Z,18.56
2023-05-10T09:41:08.096Z,18.06
2023-05-10T09:42:08.093Z,18.36
2023-05-10T09:43:08.083Z,18.15
2023-05-10T09:44:08.306Z,18.24
2023-05-10T09:45:08.053Z,18.32
2023-05-10T09:46:08.076Z,18.47
2023-05-10T09:47:08.039Z,18.53
2023-05-10T09:48:08.123Z,18.54
2023-05-10T09:49:08.010Z,18.69
2023-05-10T09:50:07.995Z,18.44
2023-05-10T09:51:08.199Z,17.67
2023-05-10T09:52:07.982Z,16.96
2023-05-10T09:53:07.962Z,16.86
2023-05-10T09:54:07.977Z,16.84
2023-05-10T09:55:07.954Z,16.46
2023-05-10T09:56:07.939Z,16.46
2023-05-10T09:57:07.943Z,16.17
2023-05-10T09:58:07.924Z,16.43
2023-05-10T09:59:07.909Z,16.31
2023-05-10T10:00:07.917Z,16.14
2023-05-10T10:01:07.955Z,16.07
2023-05-10T10:02:08.083Z,16.17
2023-05-10T10:03:08.004Z,16.35
2023-05-10T10:04:07.857Z,16.32
2023-05-10T10:05:08.081Z,16.68
2023-05-10T10:06:15.841Z,16.50
2023-05-10T10:07:08.863Z,16.79
2023-05-10T10:08:07.813Z,17.27
2023-05-10T10:09:07.808Z,17.57
2023-05-10T10:10:07.791Z,17.78
2023-05-10T10:11:07.788Z,18.01
2023-05-10T10:12:07.769Z,18.28
2023-05-10T10:13:07.762Z,18.28
2023-05-10T10:14:07.750Z,18.53
2023-05-10T10:15:07.746Z,18.41
2023-05-10T10:16:07.789Z,18.89
2023-05-10T10:17:08.919Z,19.08
2023-05-10T10:18:07.828Z,19.19
2023-05-10T10:19:07.697Z,19.41
2023-05-10T10:20:09.336Z,19.63
2023-05-10T10:21:07.679Z,19.94
2023-05-10T10:22:07.686Z,20.22
2023-05-10T10:23:07.659Z,21.55
2023-05-10T10:24:07.647Z,22.32
2023-05-10T10:25:07.639Z,22.67
2023-05-10T10:26:07.631Z,22.20
2023-05-10T10:27:07.826Z,21.42
2023-05-10T10:28:07.607Z,20.62
2023-05-10T10:29:07.598Z,19.70
2023-05-10T10:30:07.584Z,20.12
2023-05-10T10:31:07.666Z,19.87
2023-05-10T10:32:07.584Z,19.63
2023-05-10T10:33:16.602Z,19.54
2023-05-10T10:34:08.573Z,20.80
2023-05-10T10:35:07.536Z,20.59
2023-05-10T10:36:07.520Z,19.82
2023-05-10T10:37:07.724Z,19.27
2023-05-10T10:38:07.502Z,19.39
2023-05-10T10:39:07.495Z,19.05
2023-05-10T10:40:07.484Z,18.97
2023-05-10T10:41:07.474Z,18.99
2023-05-10T10:42:07.461Z,18.32
2023-05-10T10:43:07.448Z,18.66
2023-05-10T10:44:07.438Z,18.47
2023-05-10T10:45:07.427Z,18.49
2023-05-10T10:46:07.418Z,18.18
2023-05-10T10:47:07.518Z,17.93
2023-05-10T10:48:07.536Z,17.43
2023-05-10T10:49:07.380Z,17.88
2023-05-10T10:50:07.380Z,18.24
2023-05-10T10:51:07.373Z,18.39
2023-05-10T10:52:09.059Z,18.36
2023-05-10T10:53:07.383Z,18.75
2023-05-10T10:54:07.337Z,18.65
2023-05-10T10:55:07.586Z,18.22
2023-05-10T10:56:07.321Z,17.61
2023-05-10T10:57:07.309Z,17.57
2023-05-10T10:58:07.296Z,17.20
2023-05-10T10:59:07.283Z,16.96
2023-05-10T11:00:07.277Z,16.64
2023-05-10T11:01:07.297Z,16.46
2023-05-10T11:02:07.256Z,16.01
2023-05-10T11:03:07.320Z,16.07
2023-05-10T11:04:07.342Z,15.78
2023-05-10T11:05:07.222Z,15.93
2023-05-10T11:06:07.223Z,15.60
2023-05-10T11:07:07.199Z,15.43
2023-05-10T11:08:07.194Z,15.55
2023-05-10T11:09:07.193Z,15.64
2023-05-10T11:10:07.174Z,15.80
2023-05-10T11:11:07.165Z,15.52
2023-05-10T11:12:07.149Z,16.11
2023-05-10T11:13:07.187Z,16.41
2023-05-10T11:14:07.130Z,16.79
2023-05-10T11:15:07.118Z,17.49
2023-05-10T11:16:07.113Z,17.98
2023-05-10T11:17:07.144Z,17.98
2023-05-10T11:18:07.096Z,17.30
2023-05-10T11:19:07.164Z,17.18
2023-05-10T11:20:07.081Z,16.92
2023-05-10T11:21:07.061Z,17.25
2023-05-10T11:22:07.047Z,16.95
2023-05-10T11:23:07.032Z,16.76
2023-05-10T11:24:07.255Z,17.18
2023-05-10T11:25:07.014Z,17.51
2023-05-10T11:26:07.002Z,17.21
2023-05-10T11:27:07.029Z,17.33
2023-05-10T11:28:06.997Z,16.83
2023-05-10T11:29:06.981Z,16.71
2023-05-10T11:30:06.962Z,17.06
2023-05-10T11:31:06.983Z,17.06
2023-05-10T11:32:06.941Z,17.42
2023-05-10T11:33:06.984Z,17.61
2023-05-10T11:34:06.923Z,17.54
2023-05-10T11:35:06.911Z,17.42
2023-05-10T11:36:06.923Z,17.61
2023-05-10T11:37:06.889Z,17.00
2023-05-10T11:38:07.089Z,16.35
2023-05-10T11:39:06.918Z,16.46
2023-05-10T11:40:06.863Z,16.77
2023-05-10T11:41:06.852Z,16.47
2023-05-10T11:42:06.843Z,16.98
2023-05-10T11:43:06.830Z,16.64
2023-05-10T11:44:07.036Z,17.03
2023-05-10T11:45:06.813Z,16.61
2023-05-10T11:46:06.848Z,16.56
2023-05-10T11:47:06.796Z,16.47
2023-05-10T11:48:06.868Z,16.32
2023-05-10T11:49:06.773Z,16.50
2023-05-10T11:50:06.779Z,16.43
2023-05-10T11:51:06.762Z,16.96
2023-05-10T11:52:06.762Z,16.66
2023-05-10T11:53:06.732Z,16.76
2023-05-10T11:54:06.726Z,16.21
2023-05-10T11:55:06.712Z,16.76
2023-05-10T11:56:06.710Z,16.40
2023-05-10T11:57:06.722Z,16.72
2023-05-10T11:58:06.689Z,16.65
2023-05-10T11:59:06.666Z,16.58
2023-05-10T12:00:06.660Z,16.39
2023-05-10T12:01:06.648Z,16.61
2023-05-10T12:02:06.637Z,16.61
2023-05-10T12:03:06.661Z,16.35
2023-05-10T12:04:06.918Z,16.64
2023-05-10T12:05:06.708Z,16.41
2023-05-10T12:06:06.622Z,16.50
2023-05-10T12:07:08.143Z,16.10
2023-05-10T12:08:06.599Z,16.03
2023-05-10T12:09:06.563Z,16.08
2023-05-10T12:10:06.559Z,16.14
2023-05-10T12:11:06.568Z,15.74
2023-05-10T12:12:06.528Z,15.81
2023-05-10T12:13:06.520Z,15.73
2023-05-10T12:14:06.510Z,15.60
2023-05-10T12:15:06.499Z,15.45
2023-05-10T12:16:06.623Z,15.58
2023-05-10T12:17:06.480Z,15.48
2023-05-10T12:18:06.504Z,15.32
2023-05-10T12:19:06.715Z,15.89
2023-05-10T12:20:06.447Z,15.68
2023-05-10T12:21:06.445Z,15.81
2023-05-10T12:22:06.448Z,15.34
2023-05-10T12:23:06.462Z,15.34
2023-05-10T12:24:06.489Z,15.62
2023-05-10T12:25:06.395Z,15.56
2023-05-10T12:26:06.593Z,15.77
2023-05-10T12:27:06.379Z,15.92
2023-05-10T12:28:06.369Z,15.45
2023-05-10T12:29:06.368Z,15.22
2023-05-10T12:30:06.350Z,15.11
2023-05-10T12:31:06.334Z,15.55
2023-05-10T12:32:06.376Z,15.81
2023-05-10T12:33:06.354Z,15.85
2023-05-10T12:34:06.304Z,16.11
2023-05-10T12:35:06.304Z,15.77
2023-05-10T12:36:06.282Z,15.43
2023-05-10T12:37:06.271Z,15.80
2023-05-10T12:38:06.260Z,15.89
2023-05-10T12:39:07.553Z,16.11
2023-05-10T12:40:06.265Z,16.18
2023-05-10T12:41:06.287Z,16.28
2023-05-10T12:42:06.227Z,16.35
2023-05-10T12:43:06.210Z,16.35
2023-05-10T12:44:06.204Z,16.59
2023-05-10T12:45:06.193Z,16.64
2023-05-10T12:46:06.224Z,16.76
2023-05-10T12:47:06.189Z,16.81
2023-05-10T12:48:06.214Z,17.22
2023-05-10T12:49:09.437Z,17.00
2023-05-10T12:50:06.142Z,17.64
2023-05-10T12:51:06.126Z,17.83
2023-05-10T12:52:06.132Z,17.38
2023-05-10T12:53:06.107Z,17.75
2023-05-10T12:54:06.120Z,18.36
2023-05-10T12:55:06.095Z,18.25
2023-05-10T12:56:06.098Z,18.82
2023-05-10T12:57:06.077Z,18.72
2023-05-10T12:58:07.416Z,18.27
2023-05-10T12:59:06.047Z,17.93
2023-05-10T13:00:06.034Z,17.76
2023-05-10T13:01:06.125Z,18.12
2023-05-10T13:02:06.012Z,17.88
2023-05-10T13:03:06.038Z,17.53
2023-05-10T13:04:06.054Z,16.91
2023-05-10T13:05:06.166Z,16.98
2023-05-10T13:06:05.970Z,17.25
2023-05-10T13:07:05.966Z,17.39
2023-05-10T13:08:05.949Z,16.98
2023-05-10T13:09:05.943Z,16.81
2023-05-10T13:10:05.929Z,17.36
2023-05-10T13:11:05.921Z,17.67
2023-05-10T13:12:07.131Z,17.94
2023-05-10T13:13:05.894Z,18.24
2023-05-10T13:14:05.907Z,17.86
2023-05-10T13:15:05.879Z,18.18
2023-05-10T13:16:07.516Z,17.86
2023-05-10T13:17:05.933Z,19.48
2023-05-10T13:18:05.869Z,19.66
2023-05-10T13:19:05.896Z,19.49
2023-05-10T13:20:05.844Z,20.25
2023-05-10T13:21:05.813Z,20.30
2023-05-10T13:22:05.810Z,19.98
2023-05-10T13:23:05.797Z,19.30
2023-05-10T13:24:05.785Z,19.31
2023-05-10T13:25:05.777Z,19.51
2023-05-10T13:26:05.757Z,19.61
2023-05-10T13:27:05.773Z,19.59
2023-05-10T13:28:05.760Z,19.95
2023-05-10T13:29:05.731Z,18.56
2023-05-10T13:30:05.718Z,18.51
2023-05-10T13:31:05.758Z,18.76
2023-05-10T13:32:05.705Z,19.26
2023-05-10T13:33:05.706Z,18.50
2023-05-10T13:34:05.675Z,18.65
2023-05-10T13:35:05.672Z,18.68
2023-05-10T13:36:05.664Z,18.89
2023-05-10T13:37:05.670Z,18.90
2023-05-10T13:38:05.642Z,18.68
2023-05-10T13:39:05.624Z,18.89
2023-05-10T13:40:05.617Z,19.48
2023-05-10T13:41:05.622Z,20.15
2023-05-10T13:42:05.618Z,20.68
2023-05-10T13:43:05.586Z,20.15
2023-05-10T13:44:05.600Z,19.46
2023-05-10T13:45:05.594Z,19.48
2023-05-10T13:46:05.572Z,19.12
2023-05-10T13:47:05.547Z,19.20
2023-05-10T13:48:05.626Z,19.76
2023-05-10T13:49:05.527Z,20.67
2023-05-10T13:50:05.516Z,20.95
2023-05-10T13:51:05.518Z,21.30
2023-05-10T13:52:05.492Z,20.50
2023-05-10T13:53:05.491Z,20.37
2023-05-10T13:54:05.477Z,20.71
2023-05-10T13:55:05.471Z,20.89
2023-05-10T13:56:05.454Z,20.82
2023-05-10T13:57:05.455Z,20.60
2023-05-10T13:58:05.451Z,21.33
2023-05-10T13:59:05.430Z,21.33
2023-05-10T14:00:05.494Z,21.55
2023-05-10T14:01:05.410Z,21.02
2023-05-10T14:02:05.493Z,21.21
2023-05-10T14:03:05.419Z,20.56
2023-05-10T14:04:05.477Z,19.23
2023-05-10T14:05:05.363Z,18.51
2023-05-10T14:06:05.368Z,18.90
2023-05-10T14:07:05.355Z,19.46
2023-05-10T14:08:05.348Z,19.59
2023-05-10T14:09:05.325Z,19.06
2023-05-10T14:10:05.313Z,18.76
2023-05-10T14:11:05.304Z,18.68
2023-05-10T14:12:05.294Z,17.75
2023-05-10T14:13:05.285Z,17.64
2023-05-10T14:14:05.273Z,17.82
2023-05-10T14:15:05.266Z,17.57
2023-05-10T14:16:05.372Z,17.60
2023-05-10T14:17:05.250Z,17.25
2023-05-10T14:18:05.278Z,17.64
2023-05-10T14:19:05.264Z,17.46
2023-05-10T14:20:05.294Z,17.57
2023-05-10T14:21:05.212Z,17.67
2023-05-10T14:22:05.189Z,17.25
2023-05-10T14:23:05.176Z,17.72
2023-05-10T14:24:05.376Z,17.95
2023-05-10T14:25:05.168Z,18.12
2023-05-10T14:26:05.351Z,17.69
2023-05-10T14:27:05.145Z,17.86
2023-05-10T14:28:05.175Z,18.00
2023-05-10T14:29:05.118Z,18.22
2023-05-10T14:30:05.150Z,18.42
2023-05-10T14:31:05.095Z,18.08
2023-05-10T14:32:05.174Z,18.24
2023-05-10T14:33:05.108Z,17.75
2023-05-10T14:34:05.065Z,17.86
2023-05-10T14:35:05.071Z,18.24
2023-05-10T14:36:05.053Z,18.36
2023-05-10T14:37:05.042Z,18.19
2023-05-10T14:38:05.036Z,18.34
2023-05-10T14:39:05.022Z,17.78
2023-05-10T14:40:05.014Z,17.83
2023-05-10T14:41:05.004Z,18.04
2023-05-10T14:42:04.999Z,18.25
2023-05-10T14:43:04.978Z,18.10
2023-05-10T14:44:04.963Z,18.18
2023-05-10T14:45:04.961Z,17.86
2023-05-10T14:46:05.019Z,17.61
2023-05-10T14:47:04.935Z,17.05
2023-05-10T14:48:04.981Z,16.77
2023-05-10T14:49:04.912Z,17.03
2023-05-10T14:50:04.907Z,16.84
2023-05-10T14:51:04.894Z,16.84
2023-05-10T14:52:04.890Z,16.99
2023-05-10T14:53:04.878Z,17.15
2023-05-10T14:54:04.862Z,17.94
2023-05-10T14:55:04.870Z,18.54
2023-05-10T14:56:04.837Z,18.99
2023-05-10T14:57:04.822Z,19.38
2023-05-10T14:58:04.812Z,19.29
2023-05-10T14:59:04.811Z,19.37
2023-05-10T15:00:04.797Z,19.08
2023-05-10T15:01:04.827Z,18.71
2023-05-10T15:02:04.770Z,18.68
2023-05-10T15:03:04.803Z,18.59
2023-05-10T15:04:04.766Z,19.67
2023-05-10T15:05:04.743Z,19.83
2023-05-10T15:06:04.735Z,19.16
2023-05-10T15:07:04.719Z,19.37
2023-05-10T15:08:04.712Z,20.27
2023-05-10T15:09:04.706Z,20.34
2023-05-10T15:10:04.759Z,19.80
2023-05-10T15:11:04.686Z,19.02
2023-05-10T15:12:04.665Z,19.31
2023-05-10T15:13:04.651Z,18.90
2023-05-10T15:14:04.661Z,18.49
2023-05-10T15:15:04.630Z,17.86
2023-05-10T15:16:04.647Z,17.58
2023-05-10T15:17:04.611Z,17.57
2023-05-10T15:18:04.828Z,17.86
2023-05-10T15:19:04.658Z,17.73
2023-05-10T15:20:04.745Z,17.82
2023-05-10T15:21:04.575Z,17.83
2023-05-10T15:22:04.575Z,17.83
2023-05-10T15:23:04.566Z,17.40
2023-05-10T15:24:04.541Z,17.07
2023-05-10T15:25:04.537Z,17.09
2023-05-10T15:26:04.516Z,16.83
2023-05-10T15:27:04.512Z,16.77
2023-05-10T15:28:04.498Z,16.92
2023-05-10T15:29:04.490Z,17.03
2023-05-10T15:30:04.558Z,17.06
2023-05-10T15:31:04.510Z,16.77
2023-05-10T15:32:04.459Z,17.18
2023-05-10T15:33:04.516Z,17.54
2023-05-10T15:34:04.452Z,17.67
2023-05-10T15:35:04.436Z,17.60
2023-05-10T15:36:04.459Z,17.30
2023-05-10T15:37:04.410Z,17.12
2023-05-10T15:38:04.395Z,17.22
2023-05-10T15:39:04.384Z,17.25
2023-05-10T15:40:04.567Z,17.21
2023-05-10T15:41:04.367Z,17.14
2023-05-10T15:42:04.356Z,17.64
2023-05-10T15:43:04.344Z,17.36
2023-05-10T15:44:04.344Z,17.28
2023-05-10T15:45:04.322Z,17.82
2023-05-10T15:46:04.312Z,17.35
2023-05-10T15:47:04.396Z,17.55
2023-05-10T15:48:04.342Z,17.33
2023-05-10T15:49:04.281Z,17.47
2023-05-10T15:50:04.299Z,17.39
2023-05-10T15:51:04.259Z,17.54
2023-05-10T15:52:04.265Z,17.25
2023-05-10T15:53:04.246Z,17.46
2023-05-10T15:54:07.788Z,17.38
2023-05-10T15:55:04.235Z,17.33
2023-05-10T15:56:04.208Z,17.15
2023-05-10T15:57:04.218Z,16.91
2023-05-10T15:58:04.188Z,17.15
2023-05-10T15:59:04.182Z,17.00
2023-05-10T16:00:04.171Z,16.84
2023-05-10T16:01:04.183Z,17.14
2023-05-10T16:02:04.171Z,16.95
2023-05-10T16:03:04.233Z,16.84
2023-05-10T16:04:04.134Z,16.74
2023-05-10T16:05:04.116Z,17.02
2023-05-10T16:06:04.106Z,16.50
2023-05-10T16:07:04.102Z,16.59
2023-05-10T16:08:04.104Z,16.59
2023-05-10T16:09:04.081Z,17.06
2023-05-10T16:10:04.073Z,17.00
2023-05-10T16:11:04.064Z,17.00
2023-05-10T16:12:04.050Z,17.18
2023-05-10T16:13:04.050Z,17.22
2023-05-10T16:14:05.290Z,16.87
2023-05-10T16:15:04.022Z,17.03
2023-05-10T16:16:04.049Z,17.10
2023-05-10T16:17:04.205Z,16.79
2023-05-10T16:18:04.051Z,16.65
2023-05-10T16:19:04.037Z,16.83
2023-05-10T16:20:03.971Z,16.35
2023-05-10T16:21:03.953Z,16.74
2023-05-10T16:22:03.951Z,16.36
2023-05-10T16:23:03.933Z,16.53
2023-05-10T16:24:03.940Z,16.40
2023-05-10T16:25:03.922Z,16.39
2023-05-10T16:26:03.896Z,16.35
2023-05-10T16:27:04.094Z,16.33
2023-05-10T16:28:03.876Z,16.35
2023-05-10T16:29:03.862Z,16.26
2023-05-10T16:30:03.862Z,16.86
2023-05-10T16:31:03.870Z,16.44
2023-05-10T16:32:03.839Z,16.16
2023-05-10T16:33:03.858Z,16.44
2023-05-10T16:34:03.818Z,16.33
2023-05-10T16:35:03.810Z,16.54
2023-05-10T16:36:03.794Z,16.24
2023-05-10T16:37:03.778Z,16.66
2023-05-10T16:38:03.766Z,16.31
2023-05-10T16:39:03.754Z,16.39
2023-05-10T16:40:03.762Z,16.28
2023-05-10T16:41:03.744Z,16.51
2023-05-10T16:42:03.718Z,16.22
2023-05-10T16:43:03.732Z,16.49
2023-05-10T16:44:03.726Z,16.58
2023-05-10T16:45:03.702Z,16.50
2023-05-10T16:46:03.694Z,16.39
2023-05-10T16:47:03.671Z,16.53
2023-05-10T16:48:03.739Z,16.28
2023-05-10T16:49:03.649Z,15.88
2023-05-10T16:50:03.636Z,16.54
2023-05-10T16:51:03.624Z,16.14
2023-05-10T16:52:03.813Z,16.10
2023-05-10T16:53:03.602Z,15.86
2023-05-10T16:54:03.587Z,15.80
2023-05-10T16:55:03.578Z,15.76